Time;durP1;ratioP1;P1;durP2;ratioP2;P2;SDS_P1;SDS_P2;PMS_P1;PMS_P2;Temp;Humidity;BMP_temperature;BMP_pressure;BME280_temperature;BME280_humidity;BME280_pressure;Samples;Min_cycle;Max_cycle;Signal;HPM_P1;HPM_P2
2023/06/05 00:00:39;;;;;;;;;;;15.60;90.50;;;;;;8412293;28;20297;-72
2023/06/05 00:04:40;;;;;;;;;;;15.50;90.60;;;;;;8419197;28;19932;-72
2023/06/05 00:08:42;;;;;;;;;;;15.50;90.60;;;;;;8418812;28;19928;-72
2023/06/05 00:12:44;;;;;;;;;;;15.40;90.60;;;;;;8403860;28;19929;-73
2023/06/05 00:16:46;;;;;;;;;;;15.40;90.70;;;;;;8417363;28;19932;-72
2023/06/05 00:20:47;;;;;;;;;;;15.40;90.70;;;;;;8417609;28;20346;-72
2023/06/05 00:24:50;;;;;;;;;;;15.30;90.70;;;;;;8437117;28;19924;-72
2023/06/05 00:28:51;;;;;;;;;;;15.30;90.80;;;;;;8423956;28;19924;-72
2023/06/05 00:32:53;;;;;;;;;;;15.20;90.80;;;;;;8415508;28;19924;-72
2023/06/05 00:36:55;;;;;;;;;;;15.20;90.80;;;;;;8407285;28;19924;-72
2023/06/05 00:40:56;;;;;;;;;;;15.10;90.90;;;;;;8418035;28;19929;-73
2023/06/05 00:44:58;;;;;;;;;;;15.10;91.00;;;;;;8414598;28;19931;-72
2023/06/05 00:49:00;;;;;;;;;;;15.00;91.00;;;;;;8421043;28;19924;-72
2023/06/05 00:53:02;;;;;;;;;;;14.90;91.10;;;;;;8399898;28;19924;-72
2023/06/05 00:57:04;;;;;;;;;;;14.90;91.10;;;;;;8422094;28;19947;-72
2023/06/05 01:01:06;;;;;;;;;;;14.80;91.10;;;;;;8422536;28;19924;-72
2023/06/05 01:05:08;;;;;;;;;;;14.80;91.20;;;;;;8419710;28;19970;-72
2023/06/05 01:09:13;;;;;;;;;;;14.80;91.20;;;;;;8413891;28;19932;-72
2023/06/05 01:13:21;;;;;;;;;;;14.80;91.60;;;;;;8419501;28;19930;-72
2023/06/05 01:17:24;;;;;;;;;;;14.70;91.30;;;;;;8419421;28;19933;-72
2023/06/05 01:21:26;;;;;;;;;;;14.70;91.30;;;;;;8395842;28;20209;-72
2023/06/05 01:25:29;;;;;;;;;;;14.70;91.30;;;;;;8413123;28;19924;-72
2023/06/05 01:29:30;;;;;;;;;;;14.60;91.30;;;;;;8414310;28;19955;-72
2023/06/05 01:33:43;;;;;;;;;;;14.60;91.30;;;;;;8421968;28;20379;-72
2023/06/05 01:37:48;;;;;;;;;;;14.50;91.30;;;;;;8403444;28;19930;-72
2023/06/05 01:41:50;;;;;;;;;;;14.50;91.40;;;;;;8396261;28;19928;-72
2023/06/05 01:45:51;;;;;;;;;;;14.50;91.40;;;;;;8418213;28;19925;-72
2023/06/05 02:00:07;;;;;;;;;;;14.30;91.50;;;;;;8412131;28;20001;-73
2023/06/05 02:04:08;;;;;;;;;;;14.30;91.50;;;;;;8419947;28;20326;-72
2023/06/05 02:08:10;;;;;;;;;;;14.20;91.60;;;;;;8409803;28;19925;-73
2023/06/05 02:12:14;;;;;;;;;;;14.10;91.60;;;;;;8414177;28;19932;-72
2023/06/05 02:16:17;;;;;;;;;;;14.10;91.70;;;;;;8408547;28;20375;-72
2023/06/05 02:20:19;;;;;;;;;;;14.10;91.70;;;;;;8397753;28;19935;-73
2023/06/05 02:24:22;;;;;;;;;;;14.10;91.70;;;;;;8402300;28;19924;-72
2023/06/05 02:28:25;;;;;;;;;;;14.10;91.70;;;;;;8407352;28;19929;-72
2023/06/05 02:32:28;;;;;;;;;;;14.00;91.70;;;;;;8424576;28;20329;-72
2023/06/05 02:36:32;;;;;;;;;;;14.00;91.70;;;;;;8420034;28;19974;-73
2023/06/05 02:40:34;;;;;;;;;;;13.90;91.70;;;;;;8418962;28;19992;-72
2023/06/05 02:44:36;;;;;;;;;;;13.80;91.70;;;;;;8425968;28;19924;-72
2023/06/05 02:48:38;;;;;;;;;;;13.80;91.80;;;;;;8416980;28;20384;-72
2023/06/05 02:52:40;;;;;;;;;;;13.70;91.90;;;;;;8423684;28;19924;-72
2023/06/05 02:56:44;;;;;;;;;;;13.60;91.90;;;;;;8427175;28;20276;-72
2023/06/05 03:00:46;;;;;;;;;;;13.60;92.10;;;;;;8425226;28;19924;-72
2023/06/05 03:04:52;;;;;;;;;;;13.50;92.10;;;;;;8429463;28;20294;-72
2023/06/05 03:08:55;;;;;;;;;;;13.50;92.20;;;;;;8422765;28;20381;-72
2023/06/05 03:12:57;;;;;;;;;;;13.40;92.30;;;;;;8425537;28;20272;-72
2023/06/05 03:17:00;;;;;;;;;;;13.30;92.40;;;;;;8424949;28;19989;-72
2023/06/05 03:21:01;;;;;;;;;;;13.20;92.40;;;;;;8422215;28;19989;-72
2023/06/05 03:25:03;;;;;;;;;;;13.20;92.40;;;;;;8405748;28;19924;-74
2023/06/05 03:29:05;;;;;;;;;;;13.10;92.40;;;;;;8421337;28;19939;-74
2023/06/05 03:33:07;;;;;;;;;;;13.10;92.40;;;;;;8429116;28;20342;-74
2023/06/05 03:37:09;;;;;;;;;;;13.10;92.40;;;;;;8399240;28;19924;-74
2023/06/05 03:41:10;;;;;;;;;;;13.20;92.70;;;;;;8425795;28;20407;-74
2023/06/05 03:45:13;;;;;;;;;;;13.20;92.40;;;;;;8410514;28;19979;-74
2023/06/05 03:49:15;;;;;;;;;;;13.20;92.30;;;;;;8415610;28;19934;-74
2023/06/05 03:53:18;;;;;;;;;;;13.20;92.30;;;;;;8405561;28;19928;-75
2023/06/05 03:57:20;;;;;;;;;;;13.20;92.30;;;;;;8422088;28;19958;-74
2023/06/05 04:01:22;;;;;;;;;;;13.10;92.30;;;;;;8421353;28;19924;-74
2023/06/05 04:05:23;;;;;;;;;;;13.10;92.40;;;;;;8415152;28;19931;-75
2023/06/05 04:09:25;;;;;;;;;;;13.20;92.40;;;;;;8412212;28;19924;-75
2023/06/05 04:13:27;;;;;;;;;;;13.20;92.30;;;;;;8428244;28;19928;-75
2023/06/05 04:17:29;;;;;;;;;;;13.20;92.40;;;;;;8427576;28;19928;-75
2023/06/05 04:21:31;;;;;;;;;;;13.20;92.40;;;;;;8418293;28;19928;-74
2023/06/05 04:25:32;;;;;;;;;;;13.20;92.40;;;;;;8422900;28;19924;-74
2023/06/05 04:29:34;;;;;;;;;;;13.20;92.60;;;;;;8427874;28;19924;-74
2023/06/05 04:33:35;;;;;;;;;;;13.20;92.60;;;;;;8399660;28;19928;-74
2023/06/05 04:37:38;;;;;;;;;;;13.20;92.70;;;;;;8416685;28;20363;-75
2023/06/05 04:41:44;;;;;;;;;;;13.20;92.90;;;;;;8420582;28;20425;-74
2023/06/05 04:45:47;;;;;;;;;;;13.30;92.90;;;;;;8432877;28;20372;-74
2023/06/05 04:49:51;;;;;;;;;;;13.30;92.90;;;;;;8426876;28;19924;-74
2023/06/05 04:53:53;;;;;;;;;;;13.40;93.00;;;;;;8422126;28;20284;-74
2023/06/05 04:58:00;;;;;;;;;;;13.50;93.40;;;;;;8413136;28;19924;-74
2023/06/05 05:02:02;;;;;;;;;;;13.50;93.10;;;;;;8427351;28;19978;-74
2023/06/05 05:06:04;;;;;;;;;;;13.50;93.20;;;;;;8422665;28;19979;-75
2023/06/05 05:10:08;;;;;;;;;;;13.50;93.30;;;;;;8423465;28;20473;-74
2023/06/05 05:14:09;;;;;;;;;;;13.60;93.50;;;;;;8423878;28;20338;-75
2023/06/05 05:18:11;;;;;;;;;;;13.60;93.50;;;;;;8405199;28;19925;-75
2023/06/05 05:22:13;;;;;;;;;;;13.70;93.60;;;;;;8422483;28;19924;-74
2023/06/05 05:26:15;;;;;;;;;;;13.80;93.70;;;;;;8423839;28;19931;-74
2023/06/05 05:30:16;;;;;;;;;;;13.80;93.70;;;;;;8408642;28;19924;-74
2023/06/05 05:34:18;;;;;;;;;;;13.90;93.80;;;;;;8423279;28;19932;-74
2023/06/05 05:48:26;;;;;;;;;;;14.20;94.10;;;;;;8419012;28;19977;-74
2023/06/05 05:52:28;;;;;;;;;;;14.30;94.20;;;;;;8423100;28;19944;-74
2023/06/05 05:56:29;;;;;;;;;;;14.30;94.30;;;;;;8420556;28;19928;-74
2023/06/05 06:00:31;;;;;;;;;;;14.40;94.50;;;;;;8419427;28;20005;-74
2023/06/05 06:04:34;;;;;;;;;;;14.50;94.50;;;;;;8422347;28;19974;-75
2023/06/05 06:08:36;;;;;;;;;;;14.50;94.50;;;;;;8402595;28;20360;-74
2023/06/05 06:12:37;;;;;;;;;;;14.60;94.70;;;;;;8413096;28;19928;-74
2023/06/05 06:16:40;;;;;;;;;;;14.70;94.80;;;;;;8426041;28;19932;-74
2023/06/05 06:20:42;;;;;;;;;;;14.70;94.80;;;;;;8427149;28;19924;-74
2023/06/05 06:24:43;;;;;;;;;;;14.80;94.90;;;;;;8424836;28;19958;-74
2023/06/05 06:28:46;;;;;;;;;;;14.80;95.00;;;;;;8397093;28;19924;-74
2023/06/05 06:32:48;;;;;;;;;;;14.90;95.00;;;;;;8426442;28;19935;-74
2023/06/05 06:36:50;;;;;;;;;;;15.00;95.10;;;;;;8418068;28;20353;-74
2023/06/05 06:40:52;;;;;;;;;;;15.00;95.20;;;;;;8423392;28;19928;-74
2023/06/05 06:44:55;;;;;;;;;;;15.10;95.30;;;;;;8425254;28;20297;-74
2023/06/05 06:48:57;;;;;;;;;;;15.20;95.30;;;;;;8423865;28;19932;-74
2023/06/05 06:52:59;;;;;;;;;;;15.30;95.50;;;;;;8425246;28;20023;-74
2023/06/05 06:57:01;;;;;;;;;;;15.40;95.50;;;;;;8426424;28;19932;-74
2023/06/05 07:01:03;;;;;;;;;;;15.50;95.50;;;;;;8427518;28;19978;-73
2023/06/05 07:05:06;;;;;;;;;;;15.50;95.50;;;;;;8414408;28;19940;-74
2023/06/05 07:09:08;;;;;;;;;;;15.60;95.60;;;;;;8395861;28;20402;-74
2023/06/05 07:13:09;;;;;;;;;;;15.60;95.80;;;;;;8404692;28;19969;-74
2023/06/05 07:17:11;;;;;;;;;;;15.70;95.80;;;;;;8433838;28;19924;-74
2023/06/05 07:21:13;;;;;;;;;;;15.80;95.90;;;;;;8428962;28;20379;-74
2023/06/05 07:25:16;;;;;;;;;;;16.00;95.90;;;;;;8427006;28;20410;-74
2023/06/05 07:29:19;;;;;;;;;;;16.00;95.90;;;;;;8422953;28;19970;-74
2023/06/05 07:33:20;;;;;;;;;;;16.00;95.90;;;;;;8427488;28;19924;-74
2023/06/05 07:37:31;;;;;;;;;;;16.10;96.00;;;;;;8431629;28;19947;-74
2023/06/05 07:41:33;;;;;;;;;;;16.20;96.10;;;;;;8429961;28;19935;-74
2023/06/05 07:45:35;;;;;;;;;;;16.20;96.10;;;;;;8428227;28;19977;-74
2023/06/05 07:49:37;;;;;;;;;;;16.20;96.10;;;;;;8425426;28;19977;-74
2023/06/05 07:53:38;;;;;;;;;;;16.30;96.30;;;;;;8419460;28;19928;-74
2023/06/05 07:57:40;;;;;;;;;;;16.40;96.30;;;;;;8417100;28;20382;-73
2023/06/05 08:01:42;;;;;;;;;;;16.50;96.40;;;;;;8431693;28;20010;-74
2023/06/05 08:05:44;;;;;;;;;;;16.60;96.40;;;;;;8419536;28;19924;-74
2023/06/05 08:09:45;;;;;;;;;;;16.70;96.60;;;;;;8422135;28;19928;-74
2023/06/05 08:13:47;;;;;;;;;;;16.80;96.60;;;;;;8427398;28;19931;-74
2023/06/05 08:17:49;;;;;;;;;;;16.90;96.60;;;;;;8425285;28;20330;-74
2023/06/05 08:21:51;;;;;;;;;;;16.90;96.80;;;;;;8417235;28;19977;-74
2023/06/05 08:25:53;;;;;;;;;;;17.10;96.70;;;;;;8427674;28;19931;-74
2023/06/05 08:29:55;;;;;;;;;;;17.10;96.60;;;;;;8421616;28;19924;-74
2023/06/05 08:33:57;;;;;;;;;;;17.10;96.50;;;;;;8426008;28;20364;-74
2023/06/05 08:37:58;;;;;;;;;;;17.10;96.60;;;;;;8426050;28;19929;-75
2023/06/05 08:42:00;;;;;;;;;;;17.10;96.70;;;;;;8414585;28;19928;-74
2023/06/05 08:46:04;;;;;;;;;;;17.10;96.60;;;;;;8429231;28;19931;-74
2023/06/05 08:50:06;;;;;;;;;;;17.20;96.80;;;;;;8426370;28;19933;-74
2023/06/05 08:54:13;;;;;;;;;;;17.20;96.80;;;;;;8430255;28;19934;-74
2023/06/05 08:58:15;;;;;;;;;;;17.30;96.90;;;;;;8424148;28;20339;-73
2023/06/05 09:02:16;;;;;;;;;;;17.40;97.00;;;;;;8429092;28;19933;-74
2023/06/05 09:06:18;;;;;;;;;;;17.50;97.00;;;;;;8423000;28;19935;-74
2023/06/05 09:10:28;;;;;;;;;;;17.60;97.10;;;;;;8408001;28;20310;-74
2023/06/05 09:14:31;;;;;;;;;;;17.70;97.20;;;;;;8406975;28;19955;-74
2023/06/05 09:18:36;;;;;;;;;;;17.80;97.10;;;;;;8404500;28;19928;-74
2023/06/05 09:22:39;;;;;;;;;;;17.80;97.10;;;;;;8405170;28;19965;-74
2023/06/05 09:26:59;;;;;;;;;;;17.80;97.20;;;;;;8403446;28;19936;-74
2023/06/05 09:31:02;;;;;;;;;;;17.90;97.30;;;;;;8408401;28;19924;-74
2023/06/05 09:35:05;;;;;;;;;;;18.00;97.20;;;;;;8403378;28;19974;-74
2023/06/05 09:39:14;;;;;;;;;;;17.90;97.20;;;;;;8384118;28;20356;-74
2023/06/05 09:43:20;;;;;;;;;;;18.00;97.30;;;;;;8403255;28;19974;-74
2023/06/05 09:47:23;;;;;;;;;;;18.10;97.30;;;;;;8404015;28;19936;-74
2023/06/05 09:51:25;;;;;;;;;;;18.10;97.30;;;;;;8393745;28;19924;-74
2023/06/05 09:55:28;;;;;;;;;;;18.10;97.40;;;;;;8402958;28;19931;-74
2023/06/05 09:59:31;;;;;;;;;;;18.20;97.50;;;;;;8403738;28;19997;-74
2023/06/05 10:03:34;;;;;;;;;;;18.30;97.60;;;;;;8401428;28;19965;-75
2023/06/05 10:07:37;;;;;;;;;;;18.40;97.60;;;;;;8401976;28;19932;-75
2023/06/05 10:11:40;;;;;;;;;;;18.40;97.50;;;;;;8401456;28;19985;-74
2023/06/05 10:15:42;;;;;;;;;;;18.50;97.60;;;;;;8385178;28;19973;-73
2023/06/05 10:19:44;;;;;;;;;;;18.60;97.80;;;;;;8400472;28;19928;-72
2023/06/05 10:24:01;;;;;;;;;;;18.60;97.80;;;;;;8401230;28;19947;-72
2023/06/05 10:28:10;;;;;;;;;;;18.70;97.90;;;;;;8399864;28;19928;-73
2023/06/05 10:32:19;;;;;;;;;;;18.80;97.80;;;;;;8403963;28;19931;-72
2023/06/05 10:36:24;;;;;;;;;;;18.80;97.80;;;;;;8401075;28;19928;-73
2023/06/05 10:40:26;;;;;;;;;;;18.90;97.90;;;;;;8400670;28;19924;-73
2023/06/05 10:44:44;;;;;;;;;;;19.00;97.90;;;;;;8400413;28;20442;-72
2023/06/05 10:49:07;;;;;;;;;;;19.10;98.10;;;;;;8404752;28;19936;-72
2023/06/05 10:53:28;;;;;;;;;;;19.20;98.20;;;;;;8405861;28;20279;-71
2023/06/05 10:57:50;;;;;;;;;;;19.30;98.10;;;;;;8405721;28;19933;-72
2023/06/05 11:02:04;;;;;;;;;;;19.30;98.20;;;;;;8410041;28;19993;-72
2023/06/05 11:06:12;;;;;;;;;;;19.40;98.20;;;;;;8400180;28;20272;-72
2023/06/05 11:10:21;;;;;;;;;;;19.50;98.30;;;;;;8411121;28;19924;-72
2023/06/05 11:14:23;;;;;;;;;;;19.50;98.20;;;;;;8407927;28;19925;-72
2023/06/05 11:18:29;;;;;;;;;;;19.60;98.40;;;;;;8411565;28;20379;-72
2023/06/05 11:22:31;;;;;;;;;;;19.70;98.40;;;;;;8409943;28;20474;-72
2023/06/05 11:26:40;;;;;;;;;;;19.80;98.30;;;;;;8405977;28;19928;-72
2023/06/05 11:30:43;;;;;;;;;;;19.90;98.50;;;;;;8405912;28;19924;-72
2023/06/05 11:34:52;;;;;;;;;;;20.00;98.50;;;;;;8408766;28;19932;-72
2023/06/05 11:38:57;;;;;;;;;;;20.10;98.60;;;;;;8405500;28;19928;-73
2023/06/05 11:43:04;;;;;;;;;;;20.10;98.60;;;;;;8404111;28;20055;-73
2023/06/05 11:47:05;;;;;;;;;;;20.20;98.60;;;;;;8408554;28;19928;-72
2023/06/05 11:51:07;;;;;;;;;;;20.20;98.60;;;;;;8406758;28;19924;-72
2023/06/05 11:55:16;;;;;;;;;;;20.20;98.60;;;;;;8409478;28;19928;-72
2023/06/05 11:59:18;;;;;;;;;;;20.20;98.70;;;;;;8406122;28;19932;-72
2023/06/05 12:03:22;;;;;;;;;;;20.20;98.60;;;;;;8406846;28;19978;-72
2023/06/05 12:07:28;;;;;;;;;;;20.30;98.70;;;;;;8397021;28;20540;-72
2023/06/05 12:11:31;;;;;;;;;;;20.30;98.80;;;;;;8405033;28;20372;-72
2023/06/05 12:15:34;;;;;;;;;;;20.30;98.80;;;;;;8403689;28;19935;-72
2023/06/05 12:19:36;;;;;;;;;;;20.30;98.70;;;;;;8407038;28;19932;-72
2023/06/05 12:23:38;;;;;;;;;;;20.30;98.70;;;;;;8408908;28;19928;-72
2023/06/05 12:27:41;;;;;;;;;;;20.30;98.80;;;;;;8406787;28;19954;-72
2023/06/05 12:31:43;;;;;;;;;;;20.30;98.70;;;;;;8408166;28;19928;-72
2023/06/05 12:35:48;;;;;;;;;;;20.30;98.70;;;;;;8406563;28;19924;-72
2023/06/05 12:39:49;;;;;;;;;;;20.30;98.70;;;;;;8393299;28;19954;-73
2023/06/05 12:44:01;;;;;;;;;;;20.30;98.70;;;;;;8405202;28;20080;-74
2023/06/05 12:48:02;;;;;;;;;;;20.30;98.70;;;;;;8395836;28;19924;-73
2023/06/05 12:52:07;;;;;;;;;;;20.30;98.70;;;;;;8405647;28;19924;-72
2023/06/05 12:56:11;;;;;;;;;;;20.40;98.80;;;;;;8400877;28;20791;-72
2023/06/05 13:00:13;;;;;;;;;;;20.50;99.00;;;;;;8403491;28;19928;-72
2023/06/05 13:04:15;;;;;;;;;;;20.60;99.00;;;;;;8407597;28;19928;-72
2023/06/05 13:08:17;;;;;;;;;;;20.70;99.00;;;;;;8384715;28;20261;-72
2023/06/05 13:12:19;;;;;;;;;;;20.70;99.00;;;;;;8404499;28;19932;-72
2023/06/05 13:16:20;;;;;;;;;;;20.70;99.00;;;;;;8403625;28;19925;-72
2023/06/05 13:20:22;;;;;;;;;;;20.70;99.00;;;;;;8403561;28;20333;-72
2023/06/05 13:24:24;;;;;;;;;;;20.70;99.00;;;;;;8405956;28;19960;-72
2023/06/05 13:28:26;;;;;;;;;;;20.70;99.00;;;;;;8407144;28;19924;-72
2023/06/05 13:32:28;;;;;;;;;;;20.80;99.10;;;;;;8404602;28;19925;-73
2023/06/05 13:36:30;;;;;;;;;;;20.80;99.10;;;;;;8410386;28;19932;-72
2023/06/05 13:40:32;;;;;;;;;;;20.90;99.10;;;;;;8405014;28;19940;-72
2023/06/05 13:44:34;;;;;;;;;;;20.90;99.10;;;;;;8403602;28;19933;-72
2023/06/05 13:48:37;;;;;;;;;;;20.90;99.00;;;;;;8404388;28;19974;-72
2023/06/05 13:52:38;;;;;;;;;;;20.90;99.20;;;;;;8404893;28;19924;-72
2023/06/05 13:56:40;;;;;;;;;;;21.00;99.20;;;;;;8404532;28;19947;-72
2023/06/05 14:00:43;;;;;;;;;;;21.00;99.30;;;;;;8403524;28;20405;-72
2023/06/05 14:04:44;;;;;;;;;;;21.10;99.30;;;;;;8391941;28;19931;-72
2023/06/05 14:08:46;;;;;;;;;;;21.10;99.40;;;;;;8392146;28;19924;-72
2023/06/05 14:12:48;;;;;;;;;;;21.10;99.20;;;;;;8402363;28;19932;-72
2023/06/05 14:16:50;;;;;;;;;;;21.10;99.20;;;;;;8402945;28;19928;-72
2023/06/05 14:20:52;;;;;;;;;;;21.20;99.30;;;;;;8406151;28;20380;-72
2023/06/05 14:24:53;;;;;;;;;;;21.20;99.30;;;;;;8405439;28;19932;-72
2023/06/05 14:28:55;;;;;;;;;;;21.30;99.40;;;;;;8403477;28;20285;-72
2023/06/05 14:32:57;;;;;;;;;;;21.40;99.40;;;;;;8395464;28;19929;-72
2023/06/05 14:36:59;;;;;;;;;;;21.40;99.40;;;;;;8406312;28;20387;-72
2023/06/05 14:41:00;;;;;;;;;;;21.40;99.40;;;;;;8389672;28;20422;-72
2023/06/05 14:45:02;;;;;;;;;;;21.50;99.50;;;;;;8405340;28;20403;-72
2023/06/05 14:49:04;;;;;;;;;;;21.70;99.60;;;;;;8403983;28;19924;-72
2023/06/05 14:53:06;;;;;;;;;;;21.80;99.50;;;;;;8400239;28;19925;-72
2023/06/05 14:57:07;;;;;;;;;;;21.80;99.50;;;;;;8405013;28;19925;-72
2023/06/05 15:01:09;;;;;;;;;;;21.80;99.40;;;;;;8401790;28;19928;-72
2023/06/05 15:05:11;;;;;;;;;;;21.90;99.40;;;;;;8402324;28;19929;-72
2023/06/05 15:09:14;;;;;;;;;;;21.80;99.40;;;;;;8387127;28;19939;-73
2023/06/05 15:13:16;;;;;;;;;;;21.90;99.40;;;;;;8390654;28;19931;-72
2023/06/05 15:17:18;;;;;;;;;;;21.80;99.30;;;;;;8399526;28;19932;-73
2023/06/05 15:21:20;;;;;;;;;;;21.80;99.20;;;;;;8400083;28;19986;-72
2023/06/05 15:25:23;;;;;;;;;;;21.80;99.20;;;;;;8397021;28;20295;-72
2023/06/05 15:29:25;;;;;;;;;;;21.80;99.20;;;;;;8405705;28;20243;-73
2023/06/05 15:33:26;;;;;;;;;;;21.90;99.30;;;;;;8404624;28;19931;-73
2023/06/05 15:37:28;;;;;;;;;;;21.90;99.30;;;;;;8385178;28;19924;-73
2023/06/05 15:41:30;;;;;;;;;;;22.00;99.30;;;;;;8390874;28;19928;-72
2023/06/05 15:45:32;;;;;;;;;;;22.10;99.30;;;;;;8405701;28;19924;-73
2023/06/05 15:49:34;;;;;;;;;;;22.20;99.20;;;;;;8394813;28;19938;-73
2023/06/05 15:53:36;;;;;;;;;;;22.30;99.30;;;;;;8400790;28;19928;-72
2023/06/05 15:57:52;;;;;;;;;;;22.50;99.20;;;;;;8407376;28;19932;-73
2023/06/05 16:01:53;;;;;;;;;;;22.70;99.20;;;;;;8393589;28;20368;-73
2023/06/05 16:05:55;;;;;;;;;;;23.00;99.40;;;;;;8406035;28;19932;-73
2023/06/05 16:09:57;;;;;;;;;;;23.20;99.30;;;;;;8402970;28;19929;-72
2023/06/05 16:13:58;;;;;;;;;;;23.20;99.00;;;;;;8400420;28;19928;-72
2023/06/05 16:18:00;;;;;;;;;;;23.20;99.00;;;;;;8404630;28;19978;-72
2023/06/05 16:22:02;;;;;;;;;;;23.20;99.10;;;;;;8391777;28;19928;-72
2023/06/05 16:26:03;;;;;;;;;;;23.40;99.50;;;;;;8405652;28;19928;-72
2023/06/05 16:30:05;;;;;;;;;;;23.60;99.90;;;;;;8399021;28;19924;-72
2023/06/05 16:34:08;;;;;;;;;;;23.90;99.90;;;;;;8382956;28;20450;-73
2023/06/05 16:38:10;;;;;;;;;;;24.00;99.90;;;;;;8403487;28;19978;-72
2023/06/05 16:42:11;;;;;;;;;;;24.10;99.90;;;;;;8399150;28;19932;-73
2023/06/05 16:46:14;;;;;;;;;;;24.10;99.90;;;;;;8389644;28;19931;-72
2023/06/05 16:50:16;;;;;;;;;;;24.10;99.90;;;;;;8403510;28;19939;-73
2023/06/05 16:54:19;;;;;;;;;;;24.10;99.90;;;;;;8400872;28;19966;-73
2023/06/05 16:58:21;;;;;;;;;;;24.10;99.90;;;;;;8402330;28;19928;-73
2023/06/05 17:02:23;;;;;;;;;;;24.00;99.90;;;;;;8403533;28;19932;-73
2023/06/05 17:06:24;;;;;;;;;;;23.80;99.90;;;;;;8399674;28;19931;-73
2023/06/05 17:10:27;;;;;;;;;;;23.40;99.90;;;;;;8405815;28;19931;-72
2023/06/05 17:14:29;;;;;;;;;;;23.10;99.90;;;;;;8387143;28;19928;-73
2023/06/05 17:18:30;;;;;;;;;;;22.80;99.90;;;;;;8397933;28;20340;-73
2023/06/05 17:22:32;;;;;;;;;;;22.60;99.90;;;;;;8422447;28;19935;-72
2023/06/05 17:26:34;;;;;;;;;;;22.40;99.60;;;;;;8384744;28;19928;-73
2023/06/05 17:30:36;;;;;;;;;;;22.10;99.20;;;;;;8403516;28;20429;-73
2023/06/05 17:34:37;;;;;;;;;;;21.90;99.00;;;;;;8401804;28;19929;-72
2023/06/05 17:48:46;;;;;;;;;;;21.40;98.30;;;;;;8405050;28;19998;-72
2023/06/05 17:52:48;;;;;;;;;;;21.40;98.30;;;;;;8420699;28;19933;-72
2023/06/05 17:56:51;;;;;;;;;;;21.30;98.20;;;;;;8404567;28;19924;-73
2023/06/05 18:00:52;;;;;;;;;;;21.20;98.00;;;;;;8392003;28;19925;-72
2023/06/05 18:04:54;;;;;;;;;;;21.10;98.00;;;;;;8403817;28;19974;-73
2023/06/05 18:08:59;;;;;;;;;;;21.00;97.90;;;;;;8426002;27;19932;-72
2023/06/05 18:13:01;;;;;;;;;;;20.80;97.80;;;;;;8406079;28;19986;-73
2023/06/05 18:17:03;;;;;;;;;;;20.70;97.70;;;;;;8422435;28;19935;-73
2023/06/05 18:21:10;;;;;;;;;;;20.60;97.70;;;;;;8400250;28;19924;-73
2023/06/05 18:25:13;;;;;;;;;;;20.60;97.70;;;;;;8402851;28;19928;-73
2023/06/05 18:29:15;;;;;;;;;;;20.50;97.70;;;;;;8405258;28;19924;-73
2023/06/05 18:33:16;;;;;;;;;;;20.40;97.60;;;;;;8406312;28;19932;-73
2023/06/05 18:37:18;;;;;;;;;;;20.30;97.50;;;;;;8408518;28;19936;-72
2023/06/05 18:41:20;;;;;;;;;;;20.20;97.40;;;;;;8406226;28;20307;-73
2023/06/05 18:45:22;;;;;;;;;;;20.10;97.40;;;;;;8390048;28;20046;-72
2023/06/05 18:49:24;;;;;;;;;;;20.00;97.40;;;;;;8406739;28;19963;-73
2023/06/05 18:53:26;;;;;;;;;;;19.90;97.30;;;;;;8408121;28;19924;-73
2023/06/05 18:57:28;;;;;;;;;;;19.80;97.30;;;;;;8406481;28;19971;-73
2023/06/05 19:01:29;;;;;;;;;;;19.70;97.30;;;;;;8407570;28;19951;-73
2023/06/05 19:05:31;;;;;;;;;;;19.50;97.50;;;;;;8404658;28;19955;-72
2023/06/05 19:09:33;;;;;;;;;;;19.40;97.20;;;;;;8386241;28;19991;-73
2023/06/05 19:13:35;;;;;;;;;;;19.30;97.20;;;;;;8401635;28;19924;-73
2023/06/05 19:17:36;;;;;;;;;;;19.20;97.20;;;;;;8407534;28;19924;-72
2023/06/05 19:21:38;;;;;;;;;;;19.10;97.20;;;;;;8406731;28;19932;-73
2023/06/05 19:25:40;;;;;;;;;;;19.00;97.10;;;;;;8409571;28;19928;-73
2023/06/05 19:29:42;;;;;;;;;;;18.90;97.10;;;;;;8399044;28;19997;-73
2023/06/05 19:43:51;;;;;;;;;;;18.60;97.10;;;;;;8405694;28;20444;-73
2023/06/05 19:47:52;;;;;;;;;;;18.50;97.10;;;;;;8400503;28;20002;-73
2023/06/05 19:51:54;;;;;;;;;;;18.50;97.10;;;;;;8406181;28;20388;-72
2023/06/05 19:55:56;;;;;;;;;;;18.40;97.10;;;;;;8406250;28;19924;-73
2023/06/05 19:59:57;;;;;;;;;;;18.30;97.30;;;;;;8402961;28;19932;-73
2023/06/05 20:03:59;;;;;;;;;;;18.20;97.00;;;;;;8412245;28;19929;-73
2023/06/05 20:08:01;;;;;;;;;;;18.20;97.00;;;;;;8411318;28;19932;-72
2023/06/05 20:12:04;;;;;;;;;;;18.10;97.00;;;;;;8393214;28;20661;-72
2023/06/05 20:16:07;;;;;;;;;;;18.00;97.00;;;;;;8411494;28;19969;-73
2023/06/05 20:20:09;;;;;;;;;;;17.90;97.00;;;;;;8412176;28;19929;-73
2023/06/05 20:24:10;;;;;;;;;;;17.90;97.00;;;;;;8409925;28;19950;-73
2023/06/05 20:28:12;;;;;;;;;;;17.80;97.00;;;;;;8408657;28;19924;-73
2023/06/05 20:32:33;;;;;;;;;;;17.70;97.10;;;;;;8408294;28;20475;-72
2023/06/05 20:36:34;;;;;;;;;;;17.70;97.10;;;;;;8422314;27;20333;-73
2023/06/05 20:40:37;;;;;;;;;;;17.60;97.00;;;;;;8407576;28;19932;-72
2023/06/05 20:44:41;;;;;;;;;;;17.50;97.00;;;;;;8410438;28;20010;-73
2023/06/05 20:48:49;;;;;;;;;;;17.40;97.00;;;;;;8405676;28;20502;-73
2023/06/05 20:52:51;;;;;;;;;;;17.40;97.10;;;;;;8407339;28;20394;-73
2023/06/05 20:56:53;;;;;;;;;;;17.30;97.00;;;;;;8408042;28;20315;-73
2023/06/05 21:01:12;;;;;;;;;;;17.30;97.10;;;;;;8413189;28;19970;-72
2023/06/05 21:05:33;;;;;;;;;;;17.20;97.00;;;;;;8423905;28;19924;-72
2023/06/05 21:09:34;;;;;;;;;;;17.20;97.00;;;;;;8421582;28;19933;-73
2023/06/05 21:13:36;;;;;;;;;;;17.10;97.00;;;;;;8427128;28;19923;-73
2023/06/05 21:17:40;;;;;;;;;;;17.00;97.00;;;;;;8430076;28;19924;-73
2023/06/05 21:21:43;;;;;;;;;;;17.00;97.00;;;;;;8440318;28;19977;-73
2023/06/05 21:30:54;;;;;;;;;;;16.90;96.90;;;;;;8434993;28;20010;-73
2023/06/05 21:34:57;;;;;;;;;;;16.80;96.80;;;;;;8426453;28;19976;-73
2023/06/05 21:38:59;;;;;;;;;;;16.70;96.80;;;;;;8426811;28;20406;-72
2023/06/05 21:43:00;;;;;;;;;;;16.70;96.90;;;;;;8447388;28;21137;-72
2023/06/05 21:47:02;;;;;;;;;;;16.60;96.80;;;;;;8428828;28;20287;-73
2023/06/05 21:51:21;;;;;;;;;;;16.60;96.80;;;;;;8433284;28;19972;-73
2023/06/05 21:55:23;;;;;;;;;;;16.50;96.80;;;;;;8436133;28;19932;-73
2023/06/05 22:03:45;;;;;;;;;;;16.40;96.70;;;;;;8424004;28;19963;-73
2023/06/05 22:07:50;;;;;;;;;;;16.40;96.70;;;;;;8437122;28;23246;-72
2023/06/05 22:11:52;;;;;;;;;;;16.30;96.60;;;;;;8410209;28;19930;-72
2023/06/05 22:16:12;;;;;;;;;;;16.20;96.60;;;;;;8420992;28;19940;-72
2023/06/05 22:20:14;;;;;;;;;;;16.20;96.70;;;;;;8440066;28;19964;-73
2023/06/05 22:24:33;;;;;;;;;;;16.10;96.60;;;;;;8443092;28;20066;-72
2023/06/05 22:28:34;;;;;;;;;;;16.10;96.60;;;;;;8444662;28;20402;-72
2023/06/05 22:32:37;;;;;;;;;;;16.00;96.60;;;;;;8455678;28;19924;-72
2023/06/05 22:37:02;;;;;;;;;;;15.90;96.60;;;;;;8424075;28;19936;-72
2023/06/05 22:46:07;;;;;;;;;;;15.80;96.60;;;;;;8433959;28;20070;-73
2023/06/05 22:50:09;;;;;;;;;;;15.70;96.50;;;;;;8448997;28;19932;-72
2023/06/05 22:54:20;;;;;;;;;;;15.60;96.50;;;;;;8426113;28;19932;-72
2023/06/05 23:02:43;;;;;;;;;;;15.50;96.50;;;;;;8447273;28;19923;-72
2023/06/05 23:06:45;;;;;;;;;;;15.40;96.50;;;;;;8438096;28;19924;-72
2023/06/05 23:10:46;;;;;;;;;;;15.30;96.40;;;;;;8441281;28;19924;-72
2023/06/05 23:15:07;;;;;;;;;;;15.30;96.50;;;;;;8455899;28;19927;-72
2023/06/05 23:19:09;;;;;;;;;;;15.20;96.40;;;;;;8440356;28;19924;-72
2023/06/05 23:23:11;;;;;;;;;;;15.20;96.40;;;;;;8447094;28;19931;-72
2023/06/05 23:27:14;;;;;;;;;;;15.20;96.40;;;;;;8437443;28;20404;-72
2023/06/05 23:31:15;;;;;;;;;;;15.10;96.40;;;;;;8444071;28;20328;-72
2023/06/05 23:35:17;;;;;;;;;;;15.10;96.40;;;;;;8455987;28;19930;-72
2023/06/05 23:43:39;;;;;;;;;;;15.00;96.40;;;;;;8435121;28;19927;-73
2023/06/05 23:47:42;;;;;;;;;;;14.90;96.40;;;;;;8446133;28;19931;-72
2023/06/05 23:51:44;;;;;;;;;;;14.80;96.40;;;;;;8451810;28;19962;-72
2023/06/05 23:55:46;;;;;;;;;;;14.80;96.40;;;;;;8446194;28;19946;-72
2023/06/05 23:59:48;;;;;;;;;;;14.70;96.40;;;;;;8428328;28;19946;-72
